createdAt,value
2018-09-06T00:01:01.225Z,99184.60
2018-09-06T00:03:30.382Z,99176.67
2018-09-06T00:05:59.569Z,99182.77
2018-09-06T00:08:28.677Z,99180.91
2018-09-06T00:10:57.802Z,99179.00
2018-09-06T00:13:26.880Z,99176.81
2018-09-06T00:15:56.213Z,99175.22
2018-09-06T00:18:25.429Z,99184.28
2018-09-06T00:20:54.435Z,99183.78
2018-09-06T00:23:24.333Z,99185.16
2018-09-06T00:25:53.684Z,99179.97
2018-09-06T00:28:22.860Z,99173.12
2018-09-06T00:30:51.990Z,99173.44
2018-09-06T00:33:21.691Z,99175.91
2018-09-06T00:35:51.400Z,99177.57
2018-09-06T00:38:21.068Z,99174.60
2018-09-06T00:40:50.388Z,99173.26
2018-09-06T00:43:19.588Z,99173.02
2018-09-06T00:45:48.894Z,99175.50
2018-09-06T00:48:18.209Z,99176.05
2018-09-06T00:50:47.682Z,99168.68
2018-09-06T00:53:16.716Z,99170.11
2018-09-06T00:55:46.038Z,99173.72
2018-09-06T00:58:15.247Z,99167.45
2018-09-06T01:00:44.649Z,99169.69
2018-09-06T01:03:14.186Z,99169.75
2018-09-06T01:05:43.255Z,99160.73
2018-09-06T01:08:12.889Z,99163.80
2018-09-06T01:10:42.056Z,99160.03
2018-09-06T01:13:11.152Z,99154.30
2018-09-06T01:15:40.652Z,99160.88
2018-09-06T01:18:09.895Z,99162.56
2018-09-06T01:20:38.949Z,99157.14
2018-09-06T01:23:08.223Z,99160.17
2018-09-06T01:25:42.430Z,99158.85
2018-09-06T01:28:11.610Z,99157.48
2018-09-06T01:30:40.794Z,99153.11
2018-09-06T01:33:09.991Z,99152.58
2018-09-06T01:35:43.083Z,99150.98
2018-09-06T01:38:12.044Z,99148.27
2018-09-06T01:40:41.084Z,99149.92
2018-09-06T01:43:10.288Z,99150.77
2018-09-06T01:45:39.421Z,99145.08
2018-09-06T01:48:09.084Z,99150.55
2018-09-06T01:50:38.844Z,99143.20
2018-09-06T01:53:08.160Z,99138.55
2018-09-06T01:55:37.171Z,99141.58
2018-09-06T01:58:06.267Z,99134.73
2018-09-06T02:00:35.636Z,99135.55
2018-09-06T02:03:04.728Z,99136.66
2018-09-06T02:05:37.531Z,99140.26
2018-09-06T02:08:07.999Z,99138.63
2018-09-06T02:10:37.289Z,99139.73
2018-09-06T02:13:07.398Z,99141.09
2018-09-06T02:15:36.621Z,99133.76
2018-09-06T02:18:05.970Z,99135.67
2018-09-06T02:20:35.292Z,99130.20
2018-09-06T02:23:04.941Z,99134.59
2018-09-06T02:25:34.223Z,99130.28
2018-09-06T02:28:04.552Z,99128.64
2018-09-06T02:30:33.571Z,99119.38
2018-09-06T02:33:02.795Z,99117.20
2018-09-06T02:35:31.984Z,99118.62
2018-09-06T02:38:01.151Z,99109.87
2018-09-06T02:40:35.365Z,99108.02
2018-09-06T02:43:04.703Z,99110.22
2018-09-06T02:45:34.037Z,99108.91
2018-09-06T02:48:03.255Z,99110.27
2018-09-06T02:50:37.753Z,99108.91
2018-09-06T02:53:07.464Z,99106.72
2018-09-06T02:55:36.587Z,99103.72
2018-09-06T02:58:06.243Z,99104.53
2018-09-06T03:00:36.841Z,99110.55
2018-09-06T03:03:05.841Z,99111.97
2018-09-06T03:05:34.799Z,99107.61
2018-09-06T03:08:03.742Z,99107.92
2018-09-06T03:10:42.183Z,99108.20
2018-09-06T03:13:11.412Z,99108.52
2018-09-06T03:15:40.732Z,99104.16
2018-09-06T03:18:09.689Z,99103.89
2018-09-06T03:20:38.649Z,99105.81
2018-09-06T03:23:07.800Z,99111.28
2018-09-06T03:25:37.178Z,99102.09
2018-09-06T03:28:09.183Z,99114.83
2018-09-06T03:30:38.138Z,99117.52
2018-09-06T03:33:07.248Z,99119.09
2018-09-06T03:35:36.461Z,99121.55
2018-09-06T03:38:05.640Z,99116.89
2018-09-06T03:40:35.039Z,99118.27
2018-09-06T03:43:04.101Z,99119.63
2018-09-06T03:45:33.190Z,99120.45
2018-09-06T03:48:02.266Z,99120.12
2018-09-06T03:50:31.424Z,99116.03
2018-09-06T03:53:00.655Z,99112.51
2018-09-06T03:55:30.198Z,99108.14
2018-09-06T03:57:59.655Z,99118.27
2018-09-06T04:00:28.707Z,99109.23
2018-09-06T04:02:58.098Z,99113.89
2018-09-06T04:05:27.488Z,99117.18
2018-09-06T04:07:56.832Z,99119.09
2018-09-06T04:10:25.975Z,99118.86
2018-09-06T04:12:55.197Z,99122.70
2018-09-06T04:15:24.532Z,99121.62
2018-09-06T04:17:53.651Z,99118.94
2018-09-06T04:20:22.820Z,99128.51
2018-09-06T04:22:52.804Z,99132.11
2018-09-06T04:25:22.116Z,99123.11
2018-09-06T04:27:51.378Z,99128.34
2018-09-06T04:30:20.455Z,99132.45
2018-09-06T04:32:49.800Z,99131.63
2018-09-06T04:35:19.113Z,99136.55
2018-09-06T04:37:48.394Z,99136.78
2018-09-06T04:40:17.602Z,99135.41
2018-09-06T04:42:47.051Z,99134.31
2018-09-06T04:45:16.093Z,99139.28
2018-09-06T04:47:45.012Z,99143.60
2018-09-06T04:50:14.514Z,99138.95
2018-09-06T04:52:43.651Z,99145.78
2018-09-06T04:55:13.240Z,99144.11
2018-09-06T04:57:43.368Z,99145.19
2018-09-06T05:00:12.336Z,99151.98
2018-09-06T05:02:41.381Z,99148.14
2018-09-06T05:05:10.567Z,99145.36
2018-09-06T05:07:39.640Z,99151.05
2018-09-06T05:10:09.122Z,99151.31
2018-09-06T05:12:38.235Z,99151.81
2018-09-06T05:15:07.269Z,99147.42
2018-09-06T05:17:37.954Z,99148.72
2018-09-06T05:20:07.353Z,99145.11
2018-09-06T05:22:36.653Z,99146.43
2018-09-06T05:25:06.124Z,99149.14
2018-09-06T05:27:35.131Z,99151.55
2018-09-06T05:30:04.245Z,99142.73
2018-09-06T05:32:33.230Z,99145.13
2018-09-06T05:35:02.136Z,99143.42
2018-09-06T05:37:31.514Z,99140.60
2018-09-06T05:40:00.829Z,99148.45
2018-09-06T05:42:30.084Z,99148.92
2018-09-06T05:44:59.257Z,99154.03
2018-09-06T05:47:28.597Z,99153.95
2018-09-06T05:49:58.586Z,99151.68
2018-09-06T05:52:27.847Z,99147.23
2018-09-06T05:54:57.535Z,99143.59
2018-09-06T05:57:26.765Z,99149.77
2018-09-06T05:59:55.782Z,99143.39
2018-09-06T06:02:24.987Z,99149.33
2018-09-06T06:04:54.572Z,99151.40
2018-09-06T06:07:29.323Z,99153.23
2018-09-06T06:09:58.890Z,99154.75
2018-09-06T06:12:28.882Z,99143.95
2018-09-06T06:14:58.264Z,99142.17
2018-09-06T06:17:27.721Z,99148.93
2018-09-06T06:19:56.901Z,99142.57
2018-09-06T06:22:26.399Z,99139.50
2018-09-06T06:24:55.579Z,99132.16
2018-09-06T06:27:24.743Z,99144.01
2018-09-06T06:29:54.252Z,99139.31
2018-09-06T06:32:23.660Z,99136.99
2018-09-06T06:34:53.789Z,99139.08
2018-09-06T06:37:23.291Z,99138.98
2018-09-06T06:39:52.376Z,99134.80
2018-09-06T06:42:22.371Z,99136.73
2018-09-06T06:44:51.594Z,99141.66
2018-09-06T06:47:21.581Z,99143.78
2018-09-06T06:49:50.680Z,99142.34
2018-09-06T06:52:19.937Z,99151.35
2018-09-06T06:54:49.175Z,99147.16
2018-09-06T06:57:18.221Z,99147.10
2018-09-06T06:59:47.465Z,99146.80
2018-09-06T07:02:16.428Z,99154.11
2018-09-06T07:04:45.599Z,99151.01
2018-09-06T07:07:15.305Z,99152.56
2018-09-06T07:09:44.567Z,99148.64
2018-09-06T07:12:13.588Z,99140.90
2018-09-06T07:14:42.680Z,99147.20
2018-09-06T07:17:12.979Z,99146.91
2018-09-06T07:19:42.450Z,99156.25
2018-09-06T07:22:12.519Z,99151.62
2018-09-06T07:24:41.581Z,99156.25
2018-09-06T07:27:10.578Z,99150.14
2018-09-06T07:29:40.025Z,99149.51
2018-09-06T07:32:09.982Z,99152.22
2018-09-06T07:34:39.122Z,99156.56
2018-09-06T07:37:08.140Z,99156.00
2018-09-06T07:39:37.502Z,99156.00
2018-09-06T07:42:06.424Z,99150.52
2018-09-06T07:44:35.461Z,99152.41
2018-09-06T07:47:05.373Z,99155.15
2018-09-06T07:49:34.709Z,99149.66
2018-09-06T07:52:03.913Z,99149.06
2018-09-06T07:54:33.214Z,99157.22
2018-09-06T07:57:03.763Z,99153.30
2018-09-06T07:59:33.195Z,99154.00
2018-09-06T08:02:02.695Z,99147.80
2018-09-06T08:04:31.978Z,99145.20
2018-09-06T08:07:00.991Z,99146.98
2018-09-06T08:09:30.980Z,99146.95
2018-09-06T08:11:59.984Z,99147.61
2018-09-06T08:14:29.381Z,99138.44
2018-09-06T08:16:59.165Z,99139.36
2018-09-06T08:19:28.420Z,99144.09
2018-09-06T08:21:57.614Z,99144.53
2018-09-06T08:24:27.003Z,99145.22
2018-09-06T08:26:56.487Z,99145.02
2018-09-06T08:29:25.520Z,99153.77
2018-09-06T08:31:54.797Z,99151.30
2018-09-06T08:34:24.133Z,99150.00
2018-09-06T08:36:54.269Z,99152.44
2018-09-06T08:39:23.635Z,99145.23
2018-09-06T08:41:53.495Z,99135.91
2018-09-06T08:44:22.732Z,99144.02
2018-09-06T08:46:52.107Z,99137.50
2018-09-06T08:49:21.693Z,99136.00
2018-09-06T08:51:50.746Z,99135.75
2018-09-06T08:54:20.114Z,99124.87
2018-09-06T08:56:49.361Z,99131.62
2018-09-06T08:59:18.660Z,99122.72
2018-09-06T09:01:47.913Z,99124.09
2018-09-06T09:04:16.938Z,99120.00
2018-09-06T09:06:45.995Z,99117.53
2018-09-06T09:09:16.053Z,99108.48
2018-09-06T09:11:45.367Z,99114.56
2018-09-06T09:14:14.655Z,99115.14
2018-09-06T09:16:43.859Z,99113.78
2018-09-06T09:19:12.963Z,99110.22
2018-09-06T09:21:42.205Z,99105.59
2018-09-06T09:24:11.487Z,99106.73
2018-09-06T09:26:41.179Z,99107.61
2018-09-06T09:29:10.365Z,99103.31
2018-09-06T09:31:39.403Z,99104.19
2018-09-06T09:34:08.983Z,99099.09
2018-09-06T09:36:38.236Z,99103.71
2018-09-06T09:39:09.912Z,99105.39
2018-09-06T09:41:39.151Z,99097.92
2018-09-06T09:44:08.218Z,99096.75
2018-09-06T09:49:05.450Z,99097.41
2018-09-06T09:51:34.332Z,99089.11
2018-09-06T09:54:03.470Z,99097.59
2018-09-06T09:56:32.453Z,99094.17
2018-09-06T09:59:02.461Z,99086.64
2018-09-06T10:01:36.604Z,99089.86
2018-09-06T10:04:10.674Z,99081.16
2018-09-06T10:06:44.930Z,99076.98
2018-09-06T10:09:19.266Z,99071.17
2018-09-06T10:11:48.768Z,99072.64
2018-09-06T10:14:17.783Z,99062.00
2018-09-06T10:16:47.482Z,99056.64
2018-09-06T10:19:17.140Z,99054.66
2018-09-06T10:21:46.973Z,99052.40
2018-09-06T10:24:16.608Z,99049.54
2018-09-06T10:26:45.910Z,99047.14
2018-09-06T10:29:15.280Z,99044.52
2018-09-06T10:31:44.471Z,99045.94
2018-09-06T10:34:14.014Z,99041.23
2018-09-06T10:36:43.314Z,99041.69
2018-09-06T10:39:12.377Z,99038.70
2018-09-06T10:41:42.480Z,99045.05
2018-09-06T10:44:11.679Z,99042.20
2018-09-06T10:46:40.876Z,99035.18
2018-09-06T10:49:09.898Z,99034.44
2018-09-06T10:51:39.339Z,99037.20
2018-09-06T10:54:08.801Z,99024.66
2018-09-06T10:56:37.917Z,99020.52
2018-09-06T10:59:07.482Z,99024.42
2018-09-06T11:01:36.608Z,99024.43
2018-09-06T11:04:05.656Z,99024.19
2018-09-06T11:06:34.668Z,99021.42
2018-09-06T11:09:03.993Z,99016.02
2018-09-06T11:11:33.352Z,99016.97
2018-09-06T11:14:02.371Z,99017.52
2018-09-06T11:16:31.782Z,99011.07
2018-09-06T11:19:00.978Z,99007.27
2018-09-06T11:21:30.212Z,99002.66
2018-09-06T11:24:00.422Z,98999.31
2018-09-06T11:26:29.683Z,98996.02
2018-09-06T11:28:59.099Z,98997.05
2018-09-06T11:31:28.075Z,98996.08
2018-09-06T11:33:57.466Z,98994.59
2018-09-06T11:36:26.526Z,98997.83
2018-09-06T11:38:55.787Z,98991.35
2018-09-06T11:41:24.939Z,98994.81
2018-09-06T11:43:54.013Z,98987.66
2018-09-06T11:46:23.304Z,98983.94
2018-09-06T11:48:52.574Z,98981.52
2018-09-06T11:51:21.709Z,98983.61
2018-09-06T11:53:50.966Z,98983.27
2018-09-06T11:56:20.063Z,98989.03
2018-09-06T11:58:50.170Z,98988.80
2018-09-06T12:01:19.652Z,98984.52
2018-09-06T12:03:49.148Z,98983.50
2018-09-06T12:06:18.900Z,98981.86
2018-09-06T12:08:48.559Z,98975.95
2018-09-06T12:11:17.655Z,98968.79
2018-09-06T12:13:46.616Z,98977.33
2018-09-06T12:16:15.732Z,98969.40
2018-09-06T12:18:44.828Z,98971.45
2018-09-06T12:21:14.416Z,98967.58
2018-09-06T12:23:44.651Z,98966.39
2018-09-06T12:26:13.946Z,98960.86
2018-09-06T12:28:43.002Z,98955.52
2018-09-06T12:31:15.272Z,98955.48
2018-09-06T12:33:44.596Z,98949.03
2018-09-06T12:36:13.910Z,98946.03
2018-09-06T12:38:43.086Z,98944.51
2018-09-06T12:41:12.963Z,98947.88
2018-09-06T12:43:42.967Z,98950.52
2018-09-06T12:46:13.045Z,98943.48
2018-09-06T12:48:42.416Z,98948.45
2018-09-06T12:51:13.504Z,98946.25
2018-09-06T12:53:42.489Z,98938.39
2018-09-06T12:56:11.826Z,98935.42
2018-09-06T12:58:40.923Z,98935.75
2018-09-06T13:01:12.283Z,98933.78
2018-09-06T13:03:41.820Z,98935.13
2018-09-06T13:06:10.900Z,98922.98
2018-09-06T13:08:40.529Z,98921.84
2018-09-06T13:11:09.761Z,98918.37
2018-09-06T13:13:38.872Z,98917.70
2018-09-06T13:16:08.673Z,98912.30
2018-09-06T13:18:38.367Z,98918.31
2018-09-06T13:21:07.585Z,98910.73
2018-09-06T13:23:36.693Z,98910.59
2018-09-06T13:26:06.356Z,98906.12
2018-09-06T13:28:35.462Z,98906.35
2018-09-06T13:31:04.541Z,98910.70
2018-09-06T13:33:34.704Z,98902.87
2018-09-06T13:36:04.111Z,98898.27
2018-09-06T13:38:33.073Z,98899.60
2018-09-06T13:41:02.723Z,98890.58
2018-09-06T13:43:31.903Z,98889.42
2018-09-06T13:46:01.229Z,98895.20
2018-09-06T13:48:30.437Z,98897.59
2018-09-06T13:51:00.323Z,98887.09
2018-09-06T13:53:29.389Z,98884.23
2018-09-06T13:55:58.469Z,98879.64
2018-09-06T13:58:28.074Z,98881.84
2018-09-06T14:00:57.500Z,98879.50
2018-09-06T14:03:26.833Z,98870.94
2018-09-06T14:05:56.483Z,98873.22
2018-09-06T14:08:26.069Z,98867.63
2018-09-06T14:10:55.365Z,98861.84
2018-09-06T14:13:24.543Z,98862.73
2018-09-06T14:15:53.480Z,98861.78
2018-09-06T14:18:22.708Z,98860.13
2018-09-06T14:20:51.774Z,98858.92
2018-09-06T14:23:21.254Z,98846.42
2018-09-06T14:25:50.505Z,98854.70
2018-09-06T14:28:19.706Z,98840.58
2018-09-06T14:30:48.853Z,98845.11
2018-09-06T14:33:18.786Z,98839.69
2018-09-06T14:35:47.883Z,98835.10
2018-09-06T14:38:16.956Z,98835.41
2018-09-06T14:40:46.190Z,98829.69
2018-09-06T14:43:15.636Z,98829.15
2018-09-06T14:45:44.812Z,98818.41
2018-09-06T14:48:14.233Z,98821.88
2018-09-06T14:50:43.544Z,98823.27
2018-09-06T14:53:13.204Z,98822.30
2018-09-06T14:55:42.291Z,98829.31
2018-09-06T14:58:11.435Z,98829.62
2018-09-06T15:00:41.048Z,98824.95
2018-09-06T15:03:10.445Z,98818.67
2018-09-06T15:05:39.742Z,98813.78
2018-09-06T15:08:09.087Z,98815.39
2018-09-06T15:10:38.398Z,98815.24
2018-09-06T15:13:07.876Z,98820.09
2018-09-06T15:15:36.839Z,98819.78
2018-09-06T15:18:06.125Z,98821.56
2018-09-06T15:20:35.343Z,98819.67
2018-09-06T15:23:04.572Z,98811.00
2018-09-06T15:25:33.701Z,98810.48
2018-09-06T15:28:02.748Z,98811.06
2018-09-06T15:30:32.234Z,98808.72
2018-09-06T15:33:01.471Z,98807.97
2018-09-06T15:35:30.813Z,98810.39
2018-09-06T15:38:00.233Z,98806.97
2018-09-06T15:40:29.373Z,98801.94
2018-09-06T15:42:58.434Z,98801.41
2018-09-06T15:45:28.335Z,98801.98
2018-09-06T15:47:57.651Z,98799.22
2018-09-06T15:50:26.967Z,98794.63
2018-09-06T15:52:55.983Z,98794.48
2018-09-06T15:55:25.278Z,98789.64
2018-09-06T15:57:54.256Z,98796.58
2018-09-06T16:00:23.332Z,98791.03
2018-09-06T16:02:52.852Z,98785.48
2018-09-06T16:05:21.865Z,98776.45
2018-09-06T16:07:51.112Z,98778.64
2018-09-06T16:10:20.561Z,98779.55
2018-09-06T16:12:49.971Z,98773.45
2018-09-06T16:15:19.288Z,98780.39
2018-09-06T16:17:48.299Z,98782.48
2018-09-06T16:20:17.828Z,98781.45
2018-09-06T16:22:47.239Z,98778.10
2018-09-06T16:25:16.568Z,98771.60
2018-09-06T16:27:46.046Z,98776.63
2018-09-06T16:30:15.510Z,98772.61
2018-09-06T16:32:45.198Z,98774.23
2018-09-06T16:35:17.552Z,98778.54
2018-09-06T16:37:46.688Z,98777.65
2018-09-06T16:40:15.924Z,98783.41
2018-09-06T16:42:45.303Z,98779.30
2018-09-06T16:45:14.512Z,98783.02
2018-09-06T16:47:43.722Z,98786.89
2018-09-06T16:50:12.843Z,98778.99
2018-09-06T16:52:41.855Z,98788.99
2018-09-06T16:55:11.351Z,98788.94
2018-09-06T16:57:41.392Z,98791.47
2018-09-06T17:00:10.874Z,98785.47
2018-09-06T17:02:39.995Z,98783.48
2018-09-06T17:05:09.474Z,98787.91
2018-09-06T17:07:38.675Z,98784.91
2018-09-06T17:10:07.852Z,98783.91
2018-09-06T17:12:37.650Z,98779.97
2018-09-06T17:15:06.856Z,98784.01
2018-09-06T17:17:36.219Z,98786.59
2018-09-06T17:20:05.524Z,98782.08
2018-09-06T17:22:34.631Z,98781.46
2018-09-06T17:25:03.623Z,98782.20
2018-09-06T17:27:33.170Z,98777.28
2018-09-06T17:30:03.947Z,98777.20
2018-09-06T17:32:33.318Z,98784.83
2018-09-06T17:35:02.735Z,98789.13
2018-09-06T17:37:32.084Z,98789.03
2018-09-06T17:40:01.412Z,98790.45
2018-09-06T17:42:31.759Z,98792.30
2018-09-06T17:45:00.916Z,98789.56
2018-09-06T17:47:30.331Z,98795.33
2018-09-06T17:49:59.467Z,98797.42
2018-09-06T17:52:28.556Z,98797.89
2018-09-06T17:54:57.650Z,98797.55
2018-09-06T17:57:26.900Z,98797.44
2018-09-06T17:59:56.231Z,98795.14
2018-09-06T18:02:25.878Z,98792.84
2018-09-06T18:04:55.400Z,98796.61
2018-09-06T18:07:24.802Z,98797.89
2018-09-06T18:09:53.896Z,98795.95
2018-09-06T18:12:22.953Z,98793.66
2018-09-06T18:14:53.149Z,98794.34
2018-09-06T18:17:22.229Z,98795.63
2018-09-06T18:19:51.690Z,98794.70
2018-09-06T18:22:20.885Z,98798.16
2018-09-06T18:24:49.984Z,98797.81
2018-09-06T18:27:19.365Z,98789.63
2018-09-06T18:29:48.539Z,98790.89
2018-09-06T18:32:17.980Z,98793.53
2018-09-06T18:34:47.080Z,98803.09
2018-09-06T18:37:16.342Z,98800.78
2018-09-06T18:39:45.513Z,98810.57
2018-09-06T18:42:14.735Z,98808.27
2018-09-06T18:44:44.063Z,98806.20
2018-09-06T18:47:13.268Z,98813.19
2018-09-06T18:49:42.627Z,98815.80
2018-09-06T18:52:11.735Z,98816.49
2018-09-06T18:54:40.954Z,98814.42
2018-09-06T18:57:10.495Z,98812.11
2018-09-06T18:59:40.071Z,98815.32
2018-09-06T19:02:09.776Z,98810.02
2018-09-06T19:04:38.967Z,98811.27
2018-09-06T19:07:08.092Z,98814.84
2018-09-06T19:09:37.601Z,98810.91
2018-09-06T19:12:07.384Z,98820.80
2018-09-06T19:14:36.645Z,98817.43
2018-09-06T19:17:06.032Z,98823.16
2018-09-06T19:19:35.784Z,98823.38
2018-09-06T19:22:05.141Z,98820.83
2018-09-06T19:24:34.458Z,98815.87
2018-09-06T19:27:03.717Z,98819.92
2018-09-06T19:29:32.803Z,98813.83
2018-09-06T19:32:02.117Z,98819.30
2018-09-06T19:34:31.618Z,98820.09
2018-09-06T19:37:01.285Z,98824.28
2018-09-06T19:39:30.700Z,98823.20
2018-09-06T19:41:59.802Z,98823.42
2018-09-06T19:44:29.158Z,98818.67
2018-09-06T19:46:58.410Z,98813.95
2018-09-06T19:49:27.873Z,98816.89
2018-09-06T19:51:56.919Z,98814.67
2018-09-06T19:54:26.039Z,98809.88
2018-09-06T19:56:55.518Z,98811.44
2018-09-06T19:59:24.555Z,98812.78
2018-09-06T20:01:53.937Z,98814.02
2018-09-06T20:04:23.264Z,98813.17
2018-09-06T20:06:52.467Z,98815.86
2018-09-06T20:09:21.655Z,98817.66
2018-09-06T20:11:50.786Z,98817.88
2018-09-06T20:14:20.593Z,98817.48
2018-09-06T20:16:50.170Z,98817.09
2018-09-06T20:19:19.424Z,98815.32
2018-09-06T20:21:48.708Z,98812.92
2018-09-06T20:24:17.798Z,98808.08
2018-09-06T20:26:46.946Z,98812.53
2018-09-06T20:29:16.492Z,98806.38
2018-09-06T20:31:45.570Z,98815.30
2018-09-06T20:34:15.106Z,98813.28
2018-09-06T20:36:44.373Z,98818.39
2018-09-06T20:39:13.380Z,98821.31
2018-09-06T20:41:42.608Z,98821.01
2018-09-06T20:44:12.083Z,98815.20
2018-09-06T20:46:41.305Z,98823.30
2018-09-06T20:49:10.786Z,98816.03
2018-09-06T20:51:39.854Z,98818.06
2018-09-06T20:54:09.127Z,98812.66
2018-09-06T20:56:38.250Z,98813.95
2018-09-06T20:59:07.626Z,98815.66
2018-09-06T21:01:36.875Z,98814.11
2018-09-06T21:04:05.942Z,98805.48
2018-09-06T21:06:35.360Z,98803.39
2018-09-06T21:09:05.738Z,98800.15
2018-09-06T21:11:34.769Z,98801.61
2018-09-06T21:14:03.825Z,98803.05
2018-09-06T21:16:33.237Z,98801.21
2018-09-06T21:19:02.606Z,98807.36
2018-09-06T21:21:31.806Z,98801.36
2018-09-06T21:24:01.587Z,98802.52
2018-09-06T21:26:30.955Z,98803.11
2018-09-06T21:29:00.015Z,98803.45
2018-09-06T21:31:29.961Z,98802.39
2018-09-06T21:33:59.908Z,98798.83
2018-09-06T21:36:29.027Z,98797.30
2018-09-06T21:38:58.165Z,98791.09
2018-09-06T21:41:27.473Z,98793.58
2018-09-06T21:43:56.856Z,98793.12
2018-09-06T21:46:26.709Z,98792.05
2018-09-06T21:48:55.715Z,98787.68
2018-09-06T21:51:25.001Z,98785.84
2018-09-06T21:53:54.114Z,98784.55
2018-09-06T21:56:23.270Z,98783.80
2018-09-06T21:58:52.398Z,98783.08
2018-09-06T22:01:21.514Z,98779.61
2018-09-06T22:03:55.761Z,98781.39
2018-09-06T22:06:25.190Z,98783.97
2018-09-06T22:08:54.281Z,98783.81
2018-09-06T22:11:23.794Z,98777.59
2018-09-06T22:13:53.373Z,98779.37
2018-09-06T22:16:22.922Z,98783.63
2018-09-06T22:18:51.916Z,98782.34
2018-09-06T22:21:21.210Z,98772.57
2018-09-06T22:23:50.729Z,98774.81
2018-09-06T22:26:19.973Z,98768.59
2018-09-06T22:28:49.169Z,98770.62
2018-09-06T22:31:18.561Z,98766.59
2018-09-06T22:33:47.778Z,98764.97
2018-09-06T22:36:16.719Z,98767.55
2018-09-06T22:38:45.788Z,98767.04
2018-09-06T22:41:14.834Z,98761.13
2018-09-06T22:43:44.681Z,98761.75
2018-09-06T22:46:14.214Z,98756.91
2018-09-06T22:48:43.643Z,98760.85
2018-09-06T22:51:13.625Z,98761.97
2018-09-06T22:53:42.624Z,98764.49
2018-09-06T22:56:12.251Z,98765.36
2018-09-06T22:58:41.659Z,98764.32
2018-09-06T23:01:10.850Z,98760.52
2018-09-06T23:03:41.826Z,98758.41
2018-09-06T23:06:10.995Z,98754.61
2018-09-06T23:08:40.213Z,98752.50
2018-09-06T23:11:09.452Z,98742.06
2018-09-06T23:13:38.636Z,98750.71
2018-09-06T23:16:07.862Z,98754.09
2018-09-06T23:18:36.978Z,98755.22
2018-09-06T23:21:06.302Z,98754.73
2018-09-06T23:23:35.966Z,98753.50
2018-09-06T23:26:05.355Z,98753.25
2018-09-06T23:28:34.522Z,98743.73
2018-09-06T23:31:03.785Z,98749.55
2018-09-06T23:33:33.083Z,98748.23
2018-09-06T23:36:02.374Z,98751.53
2018-09-06T23:38:32.084Z,98754.35
2018-09-06T23:41:01.317Z,98751.92
2018-09-06T23:43:31.691Z,98747.88
2018-09-06T23:46:01.039Z,98749.34
2018-09-06T23:48:30.655Z,98745.27
2018-09-06T23:51:00.641Z,98745.86
2018-09-06T23:53:29.702Z,98743.42
2018-09-06T23:55:58.824Z,98742.36
2018-09-06T23:58:28.311Z,98744.06
